sensor_id;sensor_type;location;lat;lon;timestamp;temperature;humidity
18597;DHT22;9428;50.950;6.912;2022-09-12T00:01:24;17.00;99.90
18597;DHT22;9428;50.950;6.912;2022-09-12T00:04:12;17.10;99.90
18597;DHT22;9428;50.950;6.912;2022-09-12T00:07:00;17.00;99.90
18597;DHT22;9428;50.950;6.912;2022-09-12T00:09:47;17.20;99.90
18597;DHT22;9428;50.950;6.912;2022-09-12T00:12:35;16.70;99.90
18597;DHT22;9428;50.950;6.912;2022-09-12T00:15:22;16.60;99.90
18597;DHT22;9428;50.950;6.912;2022-09-12T00:18:13;16.60;99.90
18597;DHT22;9428;50.950;6.912;2022-09-12T00:21:04;16.50;99.90
18597;DHT22;9428;50.950;6.912;2022-09-12T00:23:52;16.50;99.90
18597;DHT22;9428;50.950;6.912;2022-09-12T00:26:39;16.50;99.90
18597;DHT22;9428;50.950;6.912;2022-09-12T00:29:27;16.40;99.90
18597;DHT22;9428;50.950;6.912;2022-09-12T00:32:14;16.40;99.90
18597;DHT22;9428;50.950;6.912;2022-09-12T00:35:01;16.40;99.90
18597;DHT22;9428;50.950;6.912;2022-09-12T00:37:48;16.30;99.90
18597;DHT22;9428;50.950;6.912;2022-09-12T00:40:37;16.30;99.90
18597;DHT22;9428;50.950;6.912;2022-09-12T00:43:38;16.40;99.90
18597;DHT22;9428;50.950;6.912;2022-09-12T00:46:30;16.40;99.90
18597;DHT22;9428;50.950;6.912;2022-09-12T00:49:23;16.30;99.90
18597;DHT22;9428;50.950;6.912;2022-09-12T00:52:14;16.20;99.90
18597;DHT22;9428;50.950;6.912;2022-09-12T00:55:05;16.40;99.90
18597;DHT22;9428;50.950;6.912;2022-09-12T00:57:58;16.30;99.90
18597;DHT22;9428;50.950;6.912;2022-09-12T01:00:46;16.20;99.90
18597;DHT22;9428;50.950;6.912;2022-09-12T01:03:33;16.10;99.90
18597;DHT22;9428;50.950;6.912;2022-09-12T01:06:23;16.10;99.90
18597;DHT22;9428;50.950;6.912;2022-09-12T01:09:16;16.00;99.90
18597;DHT22;9428;50.950;6.912;2022-09-12T01:12:04;16.20;99.90
18597;DHT22;9428;50.950;6.912;2022-09-12T01:14:53;16.10;99.90
18597;DHT22;9428;50.950;6.912;2022-09-12T01:17:54;16.30;99.90
18597;DHT22;9428;50.950;6.912;2022-09-12T01:20:57;16.20;99.90
18597;DHT22;9428;50.950;6.912;2022-09-12T01:24:14;16.30;99.90
18597;DHT22;9428;50.950;6.912;2022-09-12T01:27:19;16.10;99.90
18597;DHT22;9428;50.950;6.912;2022-09-12T01:30:24;16.10;99.90
18597;DHT22;9428;50.950;6.912;2022-09-12T01:33:27;16.00;99.90
18597;DHT22;9428;50.950;6.912;2022-09-12T01:36:33;16.10;99.90
18597;DHT22;9428;50.950;6.912;2022-09-12T01:39:28;16.00;99.90
18597;DHT22;9428;50.950;6.912;2022-09-12T01:42:21;16.20;99.90
18597;DHT22;9428;50.950;6.912;2022-09-12T01:45:15;16.10;99.90
18597;DHT22;9428;50.950;6.912;2022-09-12T01:48:10;15.90;99.90
18597;DHT22;9428;50.950;6.912;2022-09-12T01:51:05;16.00;99.90
18597;DHT22;9428;50.950;6.912;2022-09-12T01:53:57;16.00;99.90
18597;DHT22;9428;50.950;6.912;2022-09-12T01:56:52;16.00;99.90
18597;DHT22;9428;50.950;6.912;2022-09-12T01:59:44;16.00;99.90
18597;DHT22;9428;50.950;6.912;2022-09-12T02:02:35;15.90;99.90
18597;DHT22;9428;50.950;6.912;2022-09-12T02:05:29;15.90;99.90
18597;DHT22;9428;50.950;6.912;2022-09-12T02:08:21;16.00;99.90
18597;DHT22;9428;50.950;6.912;2022-09-12T02:11:12;16.00;99.90
18597;DHT22;9428;50.950;6.912;2022-09-12T02:14:02;16.00;99.90
18597;DHT22;9428;50.950;6.912;2022-09-12T02:16:55;15.90;99.90
18597;DHT22;9428;50.950;6.912;2022-09-12T02:19:46;15.90;99.90
18597;DHT22;9428;50.950;6.912;2022-09-12T02:22:38;15.90;99.90
18597;DHT22;9428;50.950;6.912;2022-09-12T02:25:28;15.90;99.90
18597;DHT22;9428;50.950;6.912;2022-09-12T02:28:18;15.90;99.90
18597;DHT22;9428;50.950;6.912;2022-09-12T02:31:13;15.90;99.90
18597;DHT22;9428;50.950;6.912;2022-09-12T02:34:09;16.10;99.90
18597;DHT22;9428;50.950;6.912;2022-09-12T02:37:05;15.80;99.90
18597;DHT22;9428;50.950;6.912;2022-09-12T02:39:55;15.80;99.90
18597;DHT22;9428;50.950;6.912;2022-09-12T02:42:43;15.90;99.90
18597;DHT22;9428;50.950;6.912;2022-09-12T02:45:32;15.80;99.90
18597;DHT22;9428;50.950;6.912;2022-09-12T02:48:23;15.70;99.90
18597;DHT22;9428;50.950;6.912;2022-09-12T02:51:12;15.80;99.90
18597;DHT22;9428;50.950;6.912;2022-09-12T02:54:00;15.70;99.90
18597;DHT22;9428;50.950;6.912;2022-09-12T02:56:49;15.70;99.90
18597;DHT22;9428;50.950;6.912;2022-09-12T02:59:36;15.80;99.90
18597;DHT22;9428;50.950;6.912;2022-09-12T03:02:29;16.00;99.90
18597;DHT22;9428;50.950;6.912;2022-09-12T03:05:22;15.70;99.90
18597;DHT22;9428;50.950;6.912;2022-09-12T03:08:37;15.70;99.90
18597;DHT22;9428;50.950;6.912;2022-09-12T03:11:38;15.70;99.90
18597;DHT22;9428;50.950;6.912;2022-09-12T03:18:00;15.60;99.90
18597;DHT22;9428;50.950;6.912;2022-09-12T03:20:54;15.60;99.90
18597;DHT22;9428;50.950;6.912;2022-09-12T03:23:54;15.70;99.90
18597;DHT22;9428;50.950;6.912;2022-09-12T03:26:47;15.60;99.90
18597;DHT22;9428;50.950;6.912;2022-09-12T03:29:37;16.10;99.90
18597;DHT22;9428;50.950;6.912;2022-09-12T03:32:47;15.60;99.90
18597;DHT22;9428;50.950;6.912;2022-09-12T03:35:35;15.60;99.90
18597;DHT22;9428;50.950;6.912;2022-09-12T03:38:22;15.60;99.90
18597;DHT22;9428;50.950;6.912;2022-09-12T03:41:09;15.50;99.90
18597;DHT22;9428;50.950;6.912;2022-09-12T03:43:56;15.50;99.90
18597;DHT22;9428;50.950;6.912;2022-09-12T03:46:44;15.50;99.90
18597;DHT22;9428;50.950;6.912;2022-09-12T03:49:33;15.50;99.90
18597;DHT22;9428;50.950;6.912;2022-09-12T03:52:20;15.60;99.90
18597;DHT22;9428;50.950;6.912;2022-09-12T03:55:08;15.40;99.90
18597;DHT22;9428;50.950;6.912;2022-09-12T03:57:55;15.50;99.90
18597;DHT22;9428;50.950;6.912;2022-09-12T04:00:43;15.60;99.90
18597;DHT22;9428;50.950;6.912;2022-09-12T04:03:30;15.50;99.90
18597;DHT22;9428;50.950;6.912;2022-09-12T04:06:20;15.50;99.90
18597;DHT22;9428;50.950;6.912;2022-09-12T04:09:08;15.50;99.90
18597;DHT22;9428;50.950;6.912;2022-09-12T04:11:55;15.50;99.90
18597;DHT22;9428;50.950;6.912;2022-09-12T04:14:42;15.50;99.90
18597;DHT22;9428;50.950;6.912;2022-09-12T04:17:29;15.50;99.90
18597;DHT22;9428;50.950;6.912;2022-09-12T04:20:17;15.40;99.90
18597;DHT22;9428;50.950;6.912;2022-09-12T04:23:05;15.50;99.90
18597;DHT22;9428;50.950;6.912;2022-09-12T04:25:53;15.80;99.90
18597;DHT22;9428;50.950;6.912;2022-09-12T04:28:40;15.40;99.90
18597;DHT22;9428;50.950;6.912;2022-09-12T04:31:28;15.40;99.90
18597;DHT22;9428;50.950;6.912;2022-09-12T04:34:15;15.40;99.90
18597;DHT22;9428;50.950;6.912;2022-09-12T04:37:02;15.40;99.90
18597;DHT22;9428;50.950;6.912;2022-09-12T04:39:51;15.30;99.90
18597;DHT22;9428;50.950;6.912;2022-09-12T04:42:42;15.60;99.90
18597;DHT22;9428;50.950;6.912;2022-09-12T04:45:29;15.30;99.90
18597;DHT22;9428;50.950;6.912;2022-09-12T04:48:16;15.40;99.90
18597;DHT22;9428;50.950;6.912;2022-09-12T04:51:09;15.30;99.90
18597;DHT22;9428;50.950;6.912;2022-09-12T04:53:58;15.30;99.90
18597;DHT22;9428;50.950;6.912;2022-09-12T04:56:48;15.40;99.90
18597;DHT22;9428;50.950;6.912;2022-09-12T04:59:37;15.30;99.90
18597;DHT22;9428;50.950;6.912;2022-09-12T05:02:24;15.30;99.90
18597;DHT22;9428;50.950;6.912;2022-09-12T05:05:11;15.80;99.90
18597;DHT22;9428;50.950;6.912;2022-09-12T05:07:58;15.40;99.90
18597;DHT22;9428;50.950;6.912;2022-09-12T05:10:46;15.20;99.90
18597;DHT22;9428;50.950;6.912;2022-09-12T05:13:35;15.30;99.90
18597;DHT22;9428;50.950;6.912;2022-09-12T05:16:25;15.30;99.90
18597;DHT22;9428;50.950;6.912;2022-09-12T05:19:12;15.40;99.90
18597;DHT22;9428;50.950;6.912;2022-09-12T05:21:59;15.30;99.90
18597;DHT22;9428;50.950;6.912;2022-09-12T05:24:47;15.30;99.90
18597;DHT22;9428;50.950;6.912;2022-09-12T05:27:34;14.30;99.90
18597;DHT22;9428;50.950;6.912;2022-09-12T05:30:23;15.30;99.90
18597;DHT22;9428;50.950;6.912;2022-09-12T05:33:11;15.30;99.90
18597;DHT22;9428;50.950;6.912;2022-09-12T05:35:58;15.80;99.90
18597;DHT22;9428;50.950;6.912;2022-09-12T05:38:46;15.20;99.90
18597;DHT22;9428;50.950;6.912;2022-09-12T05:41:33;15.40;99.90
18597;DHT22;9428;50.950;6.912;2022-09-12T05:44:21;15.40;99.90
18597;DHT22;9428;50.950;6.912;2022-09-12T05:47:12;15.50;99.90
18597;DHT22;9428;50.950;6.912;2022-09-12T05:49:59;15.50;99.90
18597;DHT22;9428;50.950;6.912;2022-09-12T05:52:46;15.50;99.90
18597;DHT22;9428;50.950;6.912;2022-09-12T05:55:34;15.50;99.90
18597;DHT22;9428;50.950;6.912;2022-09-12T05:58:21;15.50;99.90
18597;DHT22;9428;50.950;6.912;2022-09-12T06:01:10;15.60;99.90
18597;DHT22;9428;50.950;6.912;2022-09-12T06:04:00;16.00;99.90
18597;DHT22;9428;50.950;6.912;2022-09-12T06:06:48;15.60;99.90
18597;DHT22;9428;50.950;6.912;2022-09-12T06:09:35;15.60;99.90
18597;DHT22;9428;50.950;6.912;2022-09-12T06:12:22;15.60;99.90
18597;DHT22;9428;50.950;6.912;2022-09-12T06:15:11;15.60;99.90
18597;DHT22;9428;50.950;6.912;2022-09-12T06:17:59;15.60;99.90
18597;DHT22;9428;50.950;6.912;2022-09-12T06:20:47;15.70;99.90
18597;DHT22;9428;50.950;6.912;2022-09-12T06:23:35;15.70;99.90
18597;DHT22;9428;50.950;6.912;2022-09-12T06:26:23;15.80;99.90
18597;DHT22;9428;50.950;6.912;2022-09-12T06:29:11;15.80;99.90
18597;DHT22;9428;50.950;6.912;2022-09-12T06:31:58;15.90;99.90
18597;DHT22;9428;50.950;6.912;2022-09-12T06:34:45;16.00;99.90
18597;DHT22;9428;50.950;6.912;2022-09-12T06:37:34;15.80;99.90
18597;DHT22;9428;50.950;6.912;2022-09-12T06:40:21;15.90;99.90
18597;DHT22;9428;50.950;6.912;2022-09-12T06:43:09;16.00;99.90
18597;DHT22;9428;50.950;6.912;2022-09-12T06:45:57;16.10;99.90
18597;DHT22;9428;50.950;6.912;2022-09-12T06:48:44;16.20;99.90
18597;DHT22;9428;50.950;6.912;2022-09-12T06:51:31;16.10;99.90
18597;DHT22;9428;50.950;6.912;2022-09-12T06:54:20;16.20;99.90
18597;DHT22;9428;50.950;6.912;2022-09-12T06:57:08;16.30;99.90
18597;DHT22;9428;50.950;6.912;2022-09-12T06:59:55;16.30;99.90
18597;DHT22;9428;50.950;6.912;2022-09-12T07:02:42;16.40;99.90
18597;DHT22;9428;50.950;6.912;2022-09-12T07:05:29;16.40;99.90
18597;DHT22;9428;50.950;6.912;2022-09-12T07:08:16;16.50;99.90
18597;DHT22;9428;50.950;6.912;2022-09-12T07:11:13;16.50;99.90
18597;DHT22;9428;50.950;6.912;2022-09-12T07:14:01;16.60;99.90
18597;DHT22;9428;50.950;6.912;2022-09-12T07:16:49;17.40;99.90
18597;DHT22;9428;50.950;6.912;2022-09-12T07:19:36;16.60;99.90
18597;DHT22;9428;50.950;6.912;2022-09-12T07:22:23;16.60;99.90
18597;DHT22;9428;50.950;6.912;2022-09-12T07:25:11;16.70;99.90
18597;DHT22;9428;50.950;6.912;2022-09-12T07:27:59;16.50;99.90
18597;DHT22;9428;50.950;6.912;2022-09-12T07:30:47;16.60;99.90
18597;DHT22;9428;50.950;6.912;2022-09-12T07:33:34;16.60;99.90
18597;DHT22;9428;50.950;6.912;2022-09-12T07:36:23;16.70;99.90
18597;DHT22;9428;50.950;6.912;2022-09-12T07:39:11;16.70;99.90
18597;DHT22;9428;50.950;6.912;2022-09-12T07:41:58;16.80;99.90
18597;DHT22;9428;50.950;6.912;2022-09-12T07:44:47;16.80;99.90
18597;DHT22;9428;50.950;6.912;2022-09-12T07:47:35;17.10;99.90
18597;DHT22;9428;50.950;6.912;2022-09-12T07:50:22;17.00;99.90
18597;DHT22;9428;50.950;6.912;2022-09-12T07:53:09;17.60;99.90
18597;DHT22;9428;50.950;6.912;2022-09-12T07:55:57;17.20;99.90
18597;DHT22;9428;50.950;6.912;2022-09-12T07:58:44;17.30;99.90
18597;DHT22;9428;50.950;6.912;2022-09-12T08:01:33;17.40;99.90
18597;DHT22;9428;50.950;6.912;2022-09-12T08:04:20;17.30;99.90
18597;DHT22;9428;50.950;6.912;2022-09-12T08:07:08;17.40;99.90
18597;DHT22;9428;50.950;6.912;2022-09-12T08:09:55;17.70;99.90
18597;DHT22;9428;50.950;6.912;2022-09-12T08:12:43;17.50;99.90
18597;DHT22;9428;50.950;6.912;2022-09-12T08:15:30;17.60;99.90
18597;DHT22;9428;50.950;6.912;2022-09-12T08:18:19;17.60;99.90
18597;DHT22;9428;50.950;6.912;2022-09-12T08:21:09;17.70;99.90
18597;DHT22;9428;50.950;6.912;2022-09-12T08:23:59;17.60;99.90
18597;DHT22;9428;50.950;6.912;2022-09-12T08:26:46;17.70;99.90
18597;DHT22;9428;50.950;6.912;2022-09-12T08:29:34;17.80;99.90
18597;DHT22;9428;50.950;6.912;2022-09-12T08:32:21;17.70;99.90
18597;DHT22;9428;50.950;6.912;2022-09-12T08:35:09;17.80;99.90
18597;DHT22;9428;50.950;6.912;2022-09-12T08:37:57;17.80;99.90
18597;DHT22;9428;50.950;6.912;2022-09-12T08:40:49;17.70;99.90
18597;DHT22;9428;50.950;6.912;2022-09-12T08:43:53;17.60;99.90
18597;DHT22;9428;50.950;6.912;2022-09-12T08:46:50;17.60;99.90
18597;DHT22;9428;50.950;6.912;2022-09-12T08:49:57;17.60;99.90
18597;DHT22;9428;50.950;6.912;2022-09-12T08:52:51;17.60;99.90
18597;DHT22;9428;50.950;6.912;2022-09-12T08:55:42;17.60;99.90
18597;DHT22;9428;50.950;6.912;2022-09-12T08:58:36;17.60;99.90
18597;DHT22;9428;50.950;6.912;2022-09-12T09:01:29;17.60;99.90
18597;DHT22;9428;50.950;6.912;2022-09-12T09:04:27;17.80;99.90
18597;DHT22;9428;50.950;6.912;2022-09-12T09:07:27;17.80;99.90
18597;DHT22;9428;50.950;6.912;2022-09-12T09:10:25;17.80;99.90
18597;DHT22;9428;50.950;6.912;2022-09-12T09:13:21;17.90;99.90
18597;DHT22;9428;50.950;6.912;2022-09-12T09:16:29;18.00;99.90
18597;DHT22;9428;50.950;6.912;2022-09-12T09:19:21;18.00;99.90
18597;DHT22;9428;50.950;6.912;2022-09-12T09:22:13;18.00;99.90
18597;DHT22;9428;50.950;6.912;2022-09-12T09:25:06;17.90;99.90
18597;DHT22;9428;50.950;6.912;2022-09-12T09:28:00;17.90;99.90
18597;DHT22;9428;50.950;6.912;2022-09-12T09:30:49;18.00;99.90
18597;DHT22;9428;50.950;6.912;2022-09-12T09:33:36;18.00;99.90
18597;DHT22;9428;50.950;6.912;2022-09-12T09:36:32;18.10;99.90
18597;DHT22;9428;50.950;6.912;2022-09-12T09:39:47;18.10;99.90
18597;DHT22;9428;50.950;6.912;2022-09-12T09:42:42;18.20;99.90
18597;DHT22;9428;50.950;6.912;2022-09-12T09:45:32;18.20;99.90
18597;DHT22;9428;50.950;6.912;2022-09-12T09:48:22;18.40;99.90
18597;DHT22;9428;50.950;6.912;2022-09-12T09:51:11;18.40;99.90
18597;DHT22;9428;50.950;6.912;2022-09-12T09:54:02;18.40;99.90
18597;DHT22;9428;50.950;6.912;2022-09-12T09:56:52;18.30;99.90
18597;DHT22;9428;50.950;6.912;2022-09-12T09:59:39;18.60;99.90
18597;DHT22;9428;50.950;6.912;2022-09-12T10:02:27;18.50;99.90
18597;DHT22;9428;50.950;6.912;2022-09-12T10:05:16;18.50;99.90
18597;DHT22;9428;50.950;6.912;2022-09-12T10:08:05;18.60;99.90
18597;DHT22;9428;50.950;6.912;2022-09-12T10:10:58;18.80;99.90
18597;DHT22;9428;50.950;6.912;2022-09-12T10:13:53;18.80;99.90
18597;DHT22;9428;50.950;6.912;2022-09-12T10:16:49;18.80;99.90
18597;DHT22;9428;50.950;6.912;2022-09-12T10:19:39;18.70;99.90
18597;DHT22;9428;50.950;6.912;2022-09-12T10:22:28;18.90;99.90
18597;DHT22;9428;50.950;6.912;2022-09-12T10:25:17;19.00;99.90
18597;DHT22;9428;50.950;6.912;2022-09-12T10:28:11;19.10;99.90
18597;DHT22;9428;50.950;6.912;2022-09-12T10:31:05;19.00;99.90
18597;DHT22;9428;50.950;6.912;2022-09-12T10:33:55;19.00;99.90
18597;DHT22;9428;50.950;6.912;2022-09-12T10:36:44;19.20;99.90
18597;DHT22;9428;50.950;6.912;2022-09-12T10:39:32;19.10;99.90
18597;DHT22;9428;50.950;6.912;2022-09-12T10:42:46;19.30;99.90
18597;DHT22;9428;50.950;6.912;2022-09-12T10:45:35;19.20;99.90
18597;DHT22;9428;50.950;6.912;2022-09-12T10:48:26;19.20;99.90
18597;DHT22;9428;50.950;6.912;2022-09-12T10:51:25;19.20;99.90
18597;DHT22;9428;50.950;6.912;2022-09-12T10:54:16;19.30;99.90
18597;DHT22;9428;50.950;6.912;2022-09-12T10:57:16;19.40;99.90
18597;DHT22;9428;50.950;6.912;2022-09-12T11:00:10;19.50;99.90
18597;DHT22;9428;50.950;6.912;2022-09-12T11:03:14;19.50;99.90
18597;DHT22;9428;50.950;6.912;2022-09-12T11:06:01;19.50;99.90
18597;DHT22;9428;50.950;6.912;2022-09-12T11:08:58;19.50;99.90
18597;DHT22;9428;50.950;6.912;2022-09-12T11:12:01;19.40;99.90
18597;DHT22;9428;50.950;6.912;2022-09-12T11:14:57;19.60;99.90
18597;DHT22;9428;50.950;6.912;2022-09-12T11:17:51;19.50;99.90
18597;DHT22;9428;50.950;6.912;2022-09-12T11:21:00;19.50;99.90
18597;DHT22;9428;50.950;6.912;2022-09-12T11:24:14;19.60;99.90
18597;DHT22;9428;50.950;6.912;2022-09-12T11:27:22;19.80;99.90
18597;DHT22;9428;50.950;6.912;2022-09-12T11:30:16;19.80;99.90
18597;DHT22;9428;50.950;6.912;2022-09-12T11:33:23;20.20;99.90
18597;DHT22;9428;50.950;6.912;2022-09-12T11:36:26;20.30;99.90
18597;DHT22;9428;50.950;6.912;2022-09-12T11:39:15;20.40;99.90
18597;DHT22;9428;50.950;6.912;2022-09-12T11:42:04;20.40;99.90
18597;DHT22;9428;50.950;6.912;2022-09-12T11:44:59;20.60;99.90
18597;DHT22;9428;50.950;6.912;2022-09-12T11:47:53;20.60;99.90
18597;DHT22;9428;50.950;6.912;2022-09-12T11:50:41;20.50;99.90
18597;DHT22;9428;50.950;6.912;2022-09-12T11:53:32;20.40;99.90
18597;DHT22;9428;50.950;6.912;2022-09-12T11:56:22;20.40;99.90
18597;DHT22;9428;50.950;6.912;2022-09-12T11:59:16;20.30;99.90
18597;DHT22;9428;50.950;6.912;2022-09-12T12:02:11;20.60;99.90
18597;DHT22;9428;50.950;6.912;2022-09-12T12:05:14;20.70;99.90
18597;DHT22;9428;50.950;6.912;2022-09-12T12:08:07;20.50;99.90
18597;DHT22;9428;50.950;6.912;2022-09-12T12:10:56;20.30;99.90
18597;DHT22;9428;50.950;6.912;2022-09-12T12:13:47;20.50;99.90
18597;DHT22;9428;50.950;6.912;2022-09-12T12:16:38;20.70;99.90
18597;DHT22;9428;50.950;6.912;2022-09-12T12:19:32;20.50;99.90
18597;DHT22;9428;50.950;6.912;2022-09-12T12:22:22;20.50;99.90
18597;DHT22;9428;50.950;6.912;2022-09-12T12:25:38;20.50;99.90
18597;DHT22;9428;50.950;6.912;2022-09-12T12:28:57;20.60;99.90
18597;DHT22;9428;50.950;6.912;2022-09-12T12:32:21;20.60;99.90
18597;DHT22;9428;50.950;6.912;2022-09-12T12:35:40;21.00;99.90
18597;DHT22;9428;50.950;6.912;2022-09-12T12:38:29;21.10;99.90
18597;DHT22;9428;50.950;6.912;2022-09-12T12:41:42;21.20;99.90
18597;DHT22;9428;50.950;6.912;2022-09-12T12:44:49;21.00;99.90
18597;DHT22;9428;50.950;6.912;2022-09-12T12:47:40;21.10;99.90
18597;DHT22;9428;50.950;6.912;2022-09-12T12:50:29;20.90;99.90
18597;DHT22;9428;50.950;6.912;2022-09-12T12:53:21;21.00;99.90
18597;DHT22;9428;50.950;6.912;2022-09-12T12:56:26;21.20;99.90
18597;DHT22;9428;50.950;6.912;2022-09-12T12:59:19;21.40;99.90
18597;DHT22;9428;50.950;6.912;2022-09-12T13:02:21;21.30;99.90
18597;DHT22;9428;50.950;6.912;2022-09-12T13:05:17;21.30;99.90
18597;DHT22;9428;50.950;6.912;2022-09-12T13:08:08;21.20;99.90
18597;DHT22;9428;50.950;6.912;2022-09-12T13:10:59;20.90;99.90
18597;DHT22;9428;50.950;6.912;2022-09-12T13:13:50;20.80;99.90
18597;DHT22;9428;50.950;6.912;2022-09-12T13:16:50;20.80;99.90
18597;DHT22;9428;50.950;6.912;2022-09-12T13:19:38;20.70;99.90
18597;DHT22;9428;50.950;6.912;2022-09-12T13:22:37;20.80;99.90
18597;DHT22;9428;50.950;6.912;2022-09-12T13:25:30;20.90;99.90
18597;DHT22;9428;50.950;6.912;2022-09-12T13:28:19;20.90;99.90
18597;DHT22;9428;50.950;6.912;2022-09-12T13:31:11;20.90;99.90
18597;DHT22;9428;50.950;6.912;2022-09-12T13:34:04;21.10;99.90
18597;DHT22;9428;50.950;6.912;2022-09-12T13:37:02;21.00;99.90
18597;DHT22;9428;50.950;6.912;2022-09-12T13:40:00;21.20;99.90
18597;DHT22;9428;50.950;6.912;2022-09-12T13:43:07;21.20;99.90
18597;DHT22;9428;50.950;6.912;2022-09-12T13:45:56;21.30;99.90
18597;DHT22;9428;50.950;6.912;2022-09-12T13:48:43;21.20;99.90
18597;DHT22;9428;50.950;6.912;2022-09-12T13:51:31;21.30;99.90
18597;DHT22;9428;50.950;6.912;2022-09-12T13:54:19;21.40;99.90
18597;DHT22;9428;50.950;6.912;2022-09-12T13:57:27;21.40;99.90
18597;DHT22;9428;50.950;6.912;2022-09-12T14:00:17;21.30;99.90
18597;DHT22;9428;50.950;6.912;2022-09-12T14:03:24;21.20;99.90
18597;DHT22;9428;50.950;6.912;2022-09-12T14:06:35;21.60;99.90
18597;DHT22;9428;50.950;6.912;2022-09-12T14:09:24;21.60;99.90
18597;DHT22;9428;50.950;6.912;2022-09-12T14:12:20;21.50;99.90
18597;DHT22;9428;50.950;6.912;2022-09-12T14:15:16;21.40;99.90
18597;DHT22;9428;50.950;6.912;2022-09-12T14:18:06;21.30;99.90
18597;DHT22;9428;50.950;6.912;2022-09-12T14:20:58;21.30;99.90
18597;DHT22;9428;50.950;6.912;2022-09-12T14:23:48;21.30;99.90
18597;DHT22;9428;50.950;6.912;2022-09-12T14:26:36;21.40;99.90
18597;DHT22;9428;50.950;6.912;2022-09-12T14:29:25;21.30;99.90
18597;DHT22;9428;50.950;6.912;2022-09-12T14:32:23;21.30;99.90
18597;DHT22;9428;50.950;6.912;2022-09-12T14:35:18;21.50;99.90
18597;DHT22;9428;50.950;6.912;2022-09-12T14:38:12;21.70;99.90
18597;DHT22;9428;50.950;6.912;2022-09-12T14:41:07;21.80;99.90
18597;DHT22;9428;50.950;6.912;2022-09-12T14:43:57;22.00;99.90
18597;DHT22;9428;50.950;6.912;2022-09-12T14:46:46;21.80;99.90
18597;DHT22;9428;50.950;6.912;2022-09-12T14:49:35;21.80;99.90
18597;DHT22;9428;50.950;6.912;2022-09-12T14:52:28;21.80;99.90
18597;DHT22;9428;50.950;6.912;2022-09-12T14:55:27;21.80;99.90
18597;DHT22;9428;50.950;6.912;2022-09-12T14:58:22;21.70;99.90
18597;DHT22;9428;50.950;6.912;2022-09-12T15:01:24;21.60;99.90
18597;DHT22;9428;50.950;6.912;2022-09-12T15:04:39;21.50;99.90
18597;DHT22;9428;50.950;6.912;2022-09-12T15:07:32;21.60;99.90
18597;DHT22;9428;50.950;6.912;2022-09-12T15:10:22;21.50;99.90
18597;DHT22;9428;50.950;6.912;2022-09-12T15:13:20;21.60;99.90
18597;DHT22;9428;50.950;6.912;2022-09-12T15:16:09;21.60;99.90
18597;DHT22;9428;50.950;6.912;2022-09-12T15:18:57;21.60;99.90
18597;DHT22;9428;50.950;6.912;2022-09-12T15:21:46;21.60;99.90
18597;DHT22;9428;50.950;6.912;2022-09-12T15:24:33;21.70;99.90
18597;DHT22;9428;50.950;6.912;2022-09-12T15:27:21;21.60;99.90
18597;DHT22;9428;50.950;6.912;2022-09-12T15:30:11;21.40;99.90
18597;DHT22;9428;50.950;6.912;2022-09-12T15:32:59;21.60;99.90
18597;DHT22;9428;50.950;6.912;2022-09-12T15:35:46;21.40;99.90
18597;DHT22;9428;50.950;6.912;2022-09-12T15:38:35;21.70;99.90
18597;DHT22;9428;50.950;6.912;2022-09-12T15:41:25;21.70;99.90
18597;DHT22;9428;50.950;6.912;2022-09-12T15:44:14;21.80;99.90
18597;DHT22;9428;50.950;6.912;2022-09-12T15:47:01;21.70;99.90
18597;DHT22;9428;50.950;6.912;2022-09-12T15:49:48;21.80;99.90
18597;DHT22;9428;50.950;6.912;2022-09-12T15:52:36;21.70;99.90
18597;DHT22;9428;50.950;6.912;2022-09-12T15:55:27;21.70;99.90
18597;DHT22;9428;50.950;6.912;2022-09-12T15:58:15;22.00;99.90
18597;DHT22;9428;50.950;6.912;2022-09-12T16:01:02;22.10;99.90
18597;DHT22;9428;50.950;6.912;2022-09-12T16:03:50;21.90;99.90
18597;DHT22;9428;50.950;6.912;2022-09-12T16:06:37;21.90;99.90
18597;DHT22;9428;50.950;6.912;2022-09-12T16:09:24;21.90;99.90
18597;DHT22;9428;50.950;6.912;2022-09-12T16:12:13;21.90;99.90
18597;DHT22;9428;50.950;6.912;2022-09-12T16:15:00;21.80;99.90
18597;DHT22;9428;50.950;6.912;2022-09-12T16:17:48;21.60;99.90
18597;DHT22;9428;50.950;6.912;2022-09-12T16:20:37;21.60;99.90
18597;DHT22;9428;50.950;6.912;2022-09-12T16:23:25;21.60;99.90
18597;DHT22;9428;50.950;6.912;2022-09-12T16:26:12;21.60;99.90
18597;DHT22;9428;50.950;6.912;2022-09-12T16:29:01;21.60;99.90
18597;DHT22;9428;50.950;6.912;2022-09-12T16:31:48;21.60;99.90
18597;DHT22;9428;50.950;6.912;2022-09-12T16:34:36;21.60;99.90
18597;DHT22;9428;50.950;6.912;2022-09-12T16:37:23;21.70;99.90
18597;DHT22;9428;50.950;6.912;2022-09-12T16:40:11;21.70;99.90
18597;DHT22;9428;50.950;6.912;2022-09-12T16:43:00;21.60;99.90
18597;DHT22;9428;50.950;6.912;2022-09-12T16:45:48;21.60;99.90
18597;DHT22;9428;50.950;6.912;2022-09-12T16:48:36;21.70;99.90
18597;DHT22;9428;50.950;6.912;2022-09-12T16:51:30;21.60;99.90
18597;DHT22;9428;50.950;6.912;2022-09-12T16:54:18;21.60;99.90
18597;DHT22;9428;50.950;6.912;2022-09-12T16:57:05;21.70;99.90
18597;DHT22;9428;50.950;6.912;2022-09-12T16:59:53;21.50;99.90
18597;DHT22;9428;50.950;6.912;2022-09-12T17:02:41;21.50;99.90
18597;DHT22;9428;50.950;6.912;2022-09-12T17:05:29;21.40;99.90
18597;DHT22;9428;50.950;6.912;2022-09-12T17:08:16;21.40;99.90
18597;DHT22;9428;50.950;6.912;2022-09-12T17:11:06;21.40;99.90
18597;DHT22;9428;50.950;6.912;2022-09-12T17:13:55;21.40;99.90
18597;DHT22;9428;50.950;6.912;2022-09-12T17:16:44;21.30;99.90
18597;DHT22;9428;50.950;6.912;2022-09-12T17:19:33;21.30;99.90
18597;DHT22;9428;50.950;6.912;2022-09-12T17:22:20;21.40;99.90
18597;DHT22;9428;50.950;6.912;2022-09-12T17:25:07;21.40;99.90
18597;DHT22;9428;50.950;6.912;2022-09-12T17:27:55;21.20;99.90
18597;DHT22;9428;50.950;6.912;2022-09-12T17:30:42;21.20;99.90
18597;DHT22;9428;50.950;6.912;2022-09-12T17:33:29;21.10;99.90
18597;DHT22;9428;50.950;6.912;2022-09-12T17:36:18;21.10;99.90
18597;DHT22;9428;50.950;6.912;2022-09-12T17:39:06;21.10;99.90
18597;DHT22;9428;50.950;6.912;2022-09-12T17:41:53;21.00;99.90
18597;DHT22;9428;50.950;6.912;2022-09-12T17:44:42;21.10;99.90
18597;DHT22;9428;50.950;6.912;2022-09-12T17:47:29;21.00;99.90
18597;DHT22;9428;50.950;6.912;2022-09-12T17:50:16;20.80;99.90
18597;DHT22;9428;50.950;6.912;2022-09-12T17:53:06;20.80;99.90
18597;DHT22;9428;50.950;6.912;2022-09-12T17:55:54;20.70;99.90
18597;DHT22;9428;50.950;6.912;2022-09-12T17:58:41;20.60;99.90
18597;DHT22;9428;50.950;6.912;2022-09-12T18:01:29;20.60;99.90
18597;DHT22;9428;50.950;6.912;2022-09-12T18:04:34;20.50;99.90
18597;DHT22;9428;50.950;6.912;2022-09-12T18:07:21;20.50;99.90
18597;DHT22;9428;50.950;6.912;2022-09-12T18:10:10;20.40;99.90
18597;DHT22;9428;50.950;6.912;2022-09-12T18:12:57;20.40;99.90
18597;DHT22;9428;50.950;6.912;2022-09-12T18:15:44;20.30;99.90
18597;DHT22;9428;50.950;6.912;2022-09-12T18:18:32;20.30;99.90
18597;DHT22;9428;50.950;6.912;2022-09-12T18:21:20;20.30;99.90
18597;DHT22;9428;50.950;6.912;2022-09-12T18:24:08;20.20;99.90